Погода Рабаулна 2 недели

Медина, Саудовская Аравия

20 мая-01 июня
  • 20мая
    Сегодня
    +28°
    +37°
    Ясно и безоблачно
    ВремяПогодаТемператураВлажностьДавлениеВетер, м/сВероятность осадков
    00:00Ясно и безоблачно+32°C64 %754 мм1.2 м/с1 %
    03:00Ясно и безоблачно+31°C62 %754 мм1.5 м/с1 %
    06:00Ясно и безоблачно+30°C54 %754 мм2.3 м/с1 %
    09:00Ясно и безоблачно+35°C39 %755 мм1.7 м/с1 %
    12:00Ясно и безоблачно+36°C50 %755 мм6.7 м/с1 %
    15:00Ясно и безоблачно+35°C54 %754 мм5.6 м/с1 %
    18:00Ясно и безоблачно+33°C60 %754 мм4.5 м/с1 %
    21:00Ясно и безоблачно+33°C62 %755 мм1.2 м/с1 %
  • 21мая
    Вторник
    +28°
    +36°
    Ясно и безоблачно
    ВремяПогодаТемператураВлажностьДавлениеВетер, м/сВероятность осадков
    00:00Ясно и безоблачно+32°C62 %755 мм2.4 м/с1 %
    03:00Ясно и безоблачно+31°C72 %755 мм1.2 м/с1 %
    06:00Ясно и безоблачно+28°C74 %755 мм2.3 м/с1 %
    09:00Ясно и безоблачно+34°C44 %756 мм1.2 м/с1 %
    12:00Ясно и безоблачно+34°C51 %756 мм6.6 м/с1 %
    15:00Ясно и безоблачно+36°C39 %754 мм5.6 м/с1 %
    18:00Ясно и безоблачно+33°C53 %754 мм5.0 м/с1 %
    21:00Ясно и безоблачно+31°C71 %755 мм2.6 м/с1 %
  • 22мая
    Среда
    +27°
    +35°
    Ясно и безоблачно
    ВремяПогодаТемператураВлажностьДавлениеВетер, м/сВероятность осадков
    00:00Ясно и безоблачно+30°C83 %755 мм2.4 м/с1 %
    03:00Ясно и безоблачно+29°C91 %754 мм2.5 м/с1 %
    06:00Ясно и безоблачно+29°C89 %755 мм1.2 м/с1 %
    09:00Ясно и безоблачно+32°C68 %756 мм1.1 м/с1 %
    12:00Ясно и безоблачно+34°C46 %755 мм5.0 м/с1 %
    15:00Ясно и безоблачно+34°C51 %754 мм6.0 м/с1 %
    18:00Ясно и безоблачно+32°C68 %754 мм4.8 м/с1 %
    21:00Ясно и безоблачно+31°C72 %755 мм1.7 м/с1 %
  • 23мая
    Четверг
    +28°
    +38°
    Ясно и безоблачно
    ВремяПогодаТемператураВлажностьДавлениеВетер, м/сВероятность осадков
    00:00Ясно и безоблачно+30°C79 %755 мм1.1 м/с1 %
    03:00Ясно и безоблачно+29°C86 %754 мм0.9 м/с1 %
    06:00Ясно и безоблачно+28°C90 %754 мм1.9 м/с1 %
    09:00Ясно и безоблачно+32°C60 %755 мм1.1 м/с1 %
    12:00Ясно и безоблачно+35°C50 %754 мм5.6 м/с1 %
    15:00Ясно и безоблачно+37°C40 %752 мм7.8 м/с1 %
    18:00Ясно и безоблачно+37°C43 %751 мм6.2 м/с1 %
    21:00Ясно и безоблачно+34°C49 %753 мм1.7 м/с1 %
Мы используем cookies
Соглашаюсь